Time;durP1;ratioP1;P1;durP2;ratioP2;P2;SDS_P1;SDS_P2;PMS_P1;PMS_P2;Temp;Humidity;BMP_temperature;BMP_pressure;BME280_temperature;BME280_humidity;BME280_pressure;Samples;Min_cycle;Max_cycle;Signal;HPM_P1;HPM_P2
2024/01/12 00:00:19;;;;;;;6.95;4.88;;;;;;;15.47;30.32;102945.47;4228962;28;20059;-56
2024/01/12 00:02:21;;;;;;;6.60;4.80;;;;;;;15.48;30.33;102947.22;4230076;28;20058;-56
2024/01/12 00:04:23;;;;;;;9.55;5.07;;;;;;;15.49;30.01;102958.69;4229735;28;20050;-57
2024/01/12 00:06:28;;;;;;;6.80;4.50;;;;;;;15.46;30.22;102954.34;4230300;28;20094;-57
2024/01/12 00:08:31;;;;;;;6.43;4.32;;;;;;;15.44;30.08;102956.16;4230261;28;20116;-55
2024/01/12 00:10:33;;;;;;;6.88;4.55;;;;;;;15.43;30.30;102945.56;4230302;28;20421;-56
2024/01/12 00:12:35;;;;;;;6.50;4.63;;;;;;;15.40;30.43;102949.16;4230159;28;20055;-56
2024/01/12 00:14:36;;;;;;;6.47;4.45;;;;;;;15.45;30.48;102954.38;4228847;28;20048;-55
2024/01/12 00:16:41;;;;;;;6.78;4.55;;;;;;;15.45;30.45;102952.59;4230156;28;20046;-57
2024/01/12 00:18:43;;;;;;;6.88;4.70;;;;;;;15.47;30.66;102956.09;4229768;28;20032;-56
2024/01/12 00:20:45;;;;;;;6.38;4.20;;;;;;;15.50;30.54;102957.78;4230230;28;20040;-57
2024/01/12 00:22:46;;;;;;;6.28;4.10;;;;;;;15.51;30.20;102961.34;4230049;28;20126;-56
2024/01/12 00:24:49;;;;;;;7.45;4.85;;;;;;;15.48;30.37;102964.91;4230167;28;20051;-54
2024/01/12 00:26:50;;;;;;;6.72;4.38;;;;;;;15.44;30.36;102958.81;4229797;28;20460;-56
2024/01/12 00:28:52;;;;;;;6.60;4.40;;;;;;;15.43;30.35;102957.06;4229910;28;20108;-52
2024/01/12 00:30:54;;;;;;;8.10;4.90;;;;;;;15.42;30.53;102954.41;4230046;28;20059;-55
2024/01/12 00:32:56;;;;;;;7.05;4.65;;;;;;;15.39;30.45;102967.75;4229682;28;20051;-56
2024/01/12 00:34:58;;;;;;;6.40;4.50;;;;;;;15.42;30.55;102955.31;4228587;28;20047;-56
2024/01/12 00:37:00;;;;;;;6.90;4.40;;;;;;;15.45;30.35;102960.53;4230079;28;20099;-55
2024/01/12 00:39:03;;;;;;;6.82;4.57;;;;;;;15.47;30.39;102956.09;4229800;28;20047;-55
2024/01/12 00:41:05;;;;;;;6.47;4.68;;;;;;;15.51;30.47;102962.19;4230023;28;20078;-56
2024/01/12 00:43:07;;;;;;;6.72;4.30;;;;;;;15.51;30.46;102961.34;4229816;28;20052;-55
2024/01/12 00:45:10;;;;;;;6.40;4.57;;;;;;;15.53;30.43;102959.50;4229902;28;20047;-56
2024/01/12 00:47:12;;;;;;;5.95;4.15;;;;;;;15.54;30.55;102961.25;4229869;28;20051;-55
2024/01/12 00:49:14;;;;;;;6.30;4.18;;;;;;;15.54;30.65;102963.91;4229533;28;20170;-56
2024/01/12 00:51:16;;;;;;;6.13;4.00;;;;;;;15.54;30.56;102961.25;4229928;28;20052;-56
2024/01/12 00:53:19;;;;;;;6.72;4.45;;;;;;;15.53;30.53;102962.16;4229757;28;20574;-56
2024/01/12 00:55:20;;;;;;;6.50;4.22;;;;;;;15.55;30.51;102963.88;4229536;28;20048;-56
2024/01/12 00:57:22;;;;;;;6.85;4.13;;;;;;;15.57;30.77;102955.91;4229638;28;20126;-55
2024/01/12 00:59:24;;;;;;;6.55;4.43;;;;;;;15.58;30.56;102957.66;4229771;28;20051;-56
2024/01/12 01:01:26;;;;;;;6.57;4.35;;;;;;;15.58;30.70;102952.34;4229570;28;20557;-55
2024/01/12 01:03:28;;;;;;;6.60;4.55;;;;;;;15.62;30.60;102952.22;4229437;28;20075;-56
2024/01/12 01:05:29;;;;;;;6.88;4.47;;;;;;;15.63;30.55;102953.13;4229871;28;20062;-55
2024/01/12 01:07:31;;;;;;;5.72;4.15;;;;;;;15.62;30.88;102946.94;4229819;28;20511;-54
2024/01/12 01:09:33;;;;;;;5.88;3.97;;;;;;;15.64;30.85;102946.91;4229551;28;20104;-55
2024/01/12 01:11:35;;;;;;;5.72;4.07;;;;;;;15.62;30.49;102941.63;4229563;28;20048;-55
2024/01/12 01:13:38;;;;;;;6.55;4.57;;;;;;;15.60;30.94;102945.22;4229257;28;20130;-54
2024/01/12 01:15:40;;;;;;;5.32;3.90;;;;;;;15.58;30.93;102942.59;4229529;28;20089;-55
2024/01/12 01:17:42;;;;;;;;;;;;;;;15.55;30.91;102940.00;4229992;28;20058;-56
2024/01/12 01:19:44;;;;;;;7.00;4.50;;;;;;;15.54;30.77;102926.78;4229770;28;19942;-54
2024/01/12 01:21:46;;;;;;;6.45;4.25;;;;;;;15.44;30.72;102896.94;4229793;28;20127;-56
2024/01/12 01:23:47;;;;;;;6.88;4.35;;;;;;;15.61;30.97;102923.09;4229487;28;20058;-55
2024/01/12 01:25:50;;;;;;;6.00;4.00;;;;;;;15.60;30.97;102930.19;4229445;28;20050;-52
2024/01/12 01:27:52;;;;;;;5.78;4.05;;;;;;;15.61;31.01;102924.00;4229799;28;20076;-56
2024/01/12 01:29:53;;;;;;;6.20;4.18;;;;;;;15.62;30.96;102928.34;4229230;28;20513;-55
2024/01/12 01:31:56;;;;;;;6.10;3.83;;;;;;;15.61;31.01;102920.44;4229030;28;20056;-56
2024/01/12 01:33:58;;;;;;;6.30;4.20;;;;;;;15.60;30.87;102916.03;4229370;28;20080;-56
2024/01/12 01:36:00;;;;;;;5.50;3.55;;;;;;;15.61;30.76;102920.44;4229547;28;20047;-56
2024/01/12 01:38:02;;;;;;;5.63;3.97;;;;;;;15.59;31.13;102925.78;4229605;28;20055;-56
2024/01/12 01:40:07;;;;;;;;;;;;;;;15.59;31.17;102927.56;4229858;28;20105;-56
2024/01/12 01:42:09;;;;;;;5.63;3.70;;;;;;;15.58;31.35;102920.53;4229433;28;19920;-56
2024/01/12 01:44:10;;;;;;;6.05;4.10;;;;;;;15.62;31.30;102919.53;4231040;28;20086;-56
2024/01/12 01:46:13;;;;;;;5.40;3.45;;;;;;;15.64;31.29;102923.03;4232169;28;20071;-57
2024/01/12 01:48:14;;;;;;;5.85;3.90;;;;;;;15.65;31.07;102927.44;4232153;28;20048;-55
2024/01/12 01:50:16;;;;;;;5.43;3.78;;;;;;;15.67;31.12;102922.97;4232330;28;20047;-56
2024/01/12 01:52:19;;;;;;;;;;;;;;;15.68;30.83;102926.50;4232949;28;20061;-55
2024/01/12 01:54:21;;;;;;;6.25;3.95;;;;;;;15.63;31.02;102930.09;4231191;28;19919;-55
2024/01/12 01:56:23;;;;;;;4.90;3.40;;;;;;;15.65;31.25;102938.06;4232372;28;20054;-55
2024/01/12 01:58:24;;;;;;;6.85;4.13;;;;;;;15.64;31.27;102929.22;4232330;28;20123;-55
2024/01/12 02:00:27;;;;;;;5.82;3.80;;;;;;;15.65;31.32;102919.50;4232038;28;20490;-55
2024/01/12 02:02:32;;;;;;;5.50;3.70;;;;;;;15.67;31.50;102922.97;4232263;28;20055;-56
2024/01/12 02:04:34;;;;;;;5.63;3.70;;;;;;;15.70;31.38;102922.00;4232069;28;20055;-56
2024/01/12 02:06:37;;;;;;;6.10;3.70;;;;;;;15.74;31.20;102918.41;4232235;28;20044;-56
2024/01/12 02:08:39;;;;;;;5.97;3.70;;;;;;;15.74;31.23;102919.28;4230833;28;20518;-56
2024/01/12 02:10:41;;;;;;;;;;;;;;;15.75;31.29;102926.31;4232534;28;20051;-54
2024/01/12 02:12:43;;;;;;;5.88;3.55;;;;;;;15.74;31.36;102918.41;4230820;28;20274;-56
2024/01/12 02:14:45;;;;;;;6.35;3.63;;;;;;;15.75;31.38;102918.38;4231834;28;20048;-56
2024/01/12 02:16:47;;;;;;;5.18;3.47;;;;;;;15.74;31.08;102916.63;4231998;28;20048;-55
2024/01/12 02:18:49;;;;;;;5.40;3.35;;;;;;;15.73;31.52;102909.56;4231962;28;20067;-56
2024/01/12 02:20:57;;;;;;;;;;;;;;;15.71;31.28;102910.50;4232417;28;20051;-56
2024/01/12 02:22:59;;;;;;;5.03;3.28;;;;;;;15.71;31.59;102907.84;4231833;28;19920;-53
2024/01/12 02:25:01;;;;;;;5.38;3.50;;;;;;;15.75;31.33;102904.25;4231871;28;20114;-54
2024/01/12 02:27:03;;;;;;;4.80;3.30;;;;;;;15.75;31.37;102898.94;4231508;28;20118;-54
2024/01/12 02:29:05;;;;;;;;;;;;;;;15.74;31.29;102906.00;4231865;28;20059;-54
2024/01/12 02:31:07;;;;;;;5.90;3.47;;;;;;;15.73;31.36;102890.13;4231750;28;19920;-56
2024/01/12 02:33:09;;;;;;;5.25;3.15;;;;;;;15.76;31.58;102896.25;4231873;28;20627;-54
2024/01/12 02:35:10;;;;;;;5.68;3.65;;;;;;;15.78;31.41;102886.47;4231579;28;20083;-55
2024/01/12 02:37:12;;;;;;;5.45;3.40;;;;;;;15.78;31.15;102898.84;4231721;28;20425;-56
2024/01/12 02:39:14;;;;;;;5.38;3.35;;;;;;;15.76;31.40;102898.91;4231601;28;20043;-56
2024/01/12 02:41:16;;;;;;;;;;;;;;;15.78;31.49;102901.50;4232123;28;20402;-54
2024/01/12 02:43:18;;;;;;;5.70;3.15;;;;;;;15.76;31.50;102900.66;4231545;28;19935;-57
2024/01/12 02:45:20;;;;;;;4.95;3.15;;;;;;;15.78;31.48;102896.19;4231159;28;20409;-56
2024/01/12 02:47:22;;;;;;;5.43;3.33;;;;;;;15.80;31.49;102900.56;4231599;28;20055;-56
2024/01/12 02:49:24;;;;;;;5.63;3.70;;;;;;;15.84;31.33;102908.50;4231428;28;20051;-57
2024/01/12 02:51:26;;;;;;;5.47;3.45;;;;;;;15.84;31.45;102901.41;4231555;28;20046;-55
2024/01/12 02:53:27;;;;;;;5.25;3.38;;;;;;;15.84;31.80;102905.84;4231310;28;20139;-56
2024/01/12 02:55:29;;;;;;;5.40;3.30;;;;;;;15.85;31.44;102903.16;4231154;28;20191;-56
2024/01/12 02:57:31;;;;;;;5.50;3.70;;;;;;;15.85;31.53;102899.63;4231411;28;20072;-56
2024/01/12 02:59:33;;;;;;;5.30;3.60;;;;;;;15.83;31.64;102902.28;4230976;28;20048;-56
2024/01/12 03:01:35;;;;;;;5.50;3.58;;;;;;;15.81;31.68;102898.78;4231334;28;20043;-55
2024/01/12 03:03:36;;;;;;;5.45;3.45;;;;;;;15.81;31.73;102904.97;4231056;28;20047;-56
2024/01/12 03:05:38;;;;;;;5.43;3.55;;;;;;;15.78;31.84;102893.53;4231329;28;20168;-57
2024/01/12 03:07:40;;;;;;;5.18;3.38;;;;;;;15.80;31.87;102897.03;4231088;28;20058;-55
2024/01/12 03:09:42;;;;;;;5.72;3.63;;;;;;;15.80;31.59;102894.38;4230744;28;20052;-56
2024/01/12 03:11:44;;;;;;;5.72;3.60;;;;;;;15.85;31.71;102894.31;4230983;28;20044;-56
2024/01/12 03:13:45;;;;;;;6.00;3.88;;;;;;;15.86;31.59;102899.59;4230804;28;20055;-57
2024/01/12 03:15:47;;;;;;;5.85;3.60;;;;;;;15.88;31.57;102895.13;4230962;28;20058;-55
2024/01/12 03:17:49;;;;;;;6.13;3.70;;;;;;;15.87;31.59;102895.13;4231029;28;20065;-57
2024/01/12 03:19:51;;;;;;;6.05;4.00;;;;;;;15.87;31.89;102888.06;4231045;28;20070;-56
2024/01/12 03:21:53;;;;;;;;;;;;;;;15.86;31.76;102891.63;4231578;28;20050;-56
2024/01/12 03:23:55;;;;;;;6.07;4.32;;;;;;;15.84;31.70;102887.28;4230900;28;19931;-57
2024/01/12 03:25:58;;;;;;;5.97;3.60;;;;;;;15.84;31.90;102893.44;4230589;28;20047;-56
2024/01/12 03:27:59;;;;;;;6.30;4.18;;;;;;;15.84;31.99;102889.91;4230516;28;20063;-56
2024/01/12 03:30:01;;;;;;;5.18;3.72;;;;;;;15.85;31.98;102889.88;4230603;28;20083;-60
2024/01/12 03:32:04;;;;;;;5.40;3.67;;;;;;;15.90;31.79;102895.09;4230880;28;20047;-56
2024/01/12 03:34:06;;;;;;;6.20;3.63;;;;;;;15.91;31.91;102900.34;4230752;28;20048;-55
2024/01/12 03:36:09;;;;;;;5.97;3.95;;;;;;;15.91;31.76;102892.38;4230611;28;20070;-56
2024/01/12 03:38:12;;;;;;;6.32;4.00;;;;;;;15.93;31.93;102892.34;4230705;28;20460;-56
2024/01/12 03:40:14;;;;;;;5.85;3.60;;;;;;;15.94;31.74;102891.44;4230352;28;20058;-54
2024/01/12 03:42:15;;;;;;;5.45;3.95;;;;;;;15.93;31.97;102893.22;4230336;28;20058;-54
2024/01/12 03:44:17;;;;;;;5.80;4.03;;;;;;;15.92;31.90;102891.47;4230641;28;20059;-56
2024/01/12 03:46:19;;;;;;;6.40;3.95;;;;;;;15.91;31.90;102889.72;4230698;28;20052;-56
2024/01/12 03:48:20;;;;;;;6.15;3.92;;;;;;;15.89;32.03;102880.91;4230497;28;20039;-57
2024/01/12 03:50:22;;;;;;;6.50;4.35;;;;;;;15.91;31.91;102880.91;4230468;28;20055;-57
2024/01/12 03:52:24;;;;;;;5.80;3.90;;;;;;;15.89;32.19;102870.31;4230481;28;20045;-57
2024/01/12 03:54:26;;;;;;;6.15;3.95;;;;;;;15.94;31.83;102884.38;4230608;28;20493;-56
2024/01/12 03:56:27;;;;;;;6.75;3.92;;;;;;;15.90;31.98;102863.25;4230032;28;20043;-56
2024/01/12 03:58:30;;;;;;;6.18;4.20;;;;;;;15.95;31.80;102867.53;4230321;28;20297;-56
2024/01/12 04:00:31;;;;;;;;;;;;;;;15.96;32.01;102873.72;4230866;28;20047;-56
2024/01/12 04:02:36;;;;;;;6.03;4.07;;;;;;;15.95;32.12;102869.31;4230501;28;19995;-57
2024/01/12 04:04:41;;;;;;;5.90;4.20;;;;;;;15.95;31.81;102878.16;4230219;28;20123;-53
2024/01/12 04:06:42;;;;;;;6.63;4.63;;;;;;;15.96;31.81;102873.72;4229760;28;20096;-56
2024/01/12 04:08:47;;;;;;;5.60;4.40;;;;;;;15.94;31.72;102873.75;4230383;28;20070;-56
2024/01/12 04:10:49;;;;;;;5.18;3.78;;;;;;;15.93;32.03;102872.00;4229914;28;20417;-54
2024/01/12 04:12:50;;;;;;;6.88;4.20;;;;;;;15.96;32.15;102871.06;4230109;28;20054;-55
2024/01/12 04:14:52;;;;;;;5.90;4.15;;;;;;;15.95;31.96;102878.16;4230107;28;20053;-56
2024/01/12 04:16:53;;;;;;;6.07;4.75;;;;;;;15.97;32.02;102867.50;4230271;28;20054;-56
2024/01/12 04:18:55;;;;;;;6.70;4.60;;;;;;;16.00;32.24;102874.50;4229987;28;20468;-56
2024/01/12 04:20:57;;;;;;;;;;;;;;;15.99;32.07;102871.00;4230379;28;20061;-56
2024/01/12 04:22:59;;;;;;;6.43;4.70;;;;;;;15.95;32.13;102870.19;4230184;28;19926;-55
2024/01/12 04:25:01;;;;;;;7.25;4.75;;;;;;;15.98;32.09;102879.88;4230148;28;20495;-56
2024/01/12 04:27:03;;;;;;;6.93;4.60;;;;;;;15.99;32.19;102875.41;4228381;28;20554;-54
2024/01/12 04:29:05;;;;;;;6.78;4.43;;;;;;;15.97;32.32;102871.00;4229967;28;20069;-57
2024/01/12 04:31:07;;;;;;;6.07;4.80;;;;;;;15.95;32.28;102872.84;4230023;28;20092;-56
2024/01/12 04:33:09;;;;;;;7.25;4.95;;;;;;;15.95;32.16;102866.66;4228831;28;20081;-56
2024/01/12 04:35:11;;;;;;;6.95;4.50;;;;;;;15.95;32.35;102872.84;4230225;28;20047;-56
2024/01/12 04:37:12;;;;;;;6.40;4.57;;;;;;;15.97;32.02;102872.81;4230065;28;20071;-54
2024/01/12 04:39:15;;;;;;;6.55;4.60;;;;;;;16.00;32.18;102872.72;4229935;28;20079;-53
2024/01/12 04:41:17;;;;;;;6.75;4.63;;;;;;;16.02;32.23;102875.34;4229569;28;20054;-52
2024/01/12 04:43:18;;;;;;;7.13;4.55;;;;;;;16.01;32.21;102868.28;4229975;28;20502;-56
2024/01/12 04:45:20;;;;;;;8.13;5.15;;;;;;;16.00;31.99;102869.19;4229980;28;20040;-55
2024/01/12 04:47:21;;;;;;;7.93;5.25;;;;;;;16.01;32.05;102871.81;4229974;28;20520;-56
2024/01/12 04:49:23;;;;;;;6.80;5.03;;;;;;;16.00;32.43;102864.75;4229880;28;20043;-56
2024/01/12 04:51:25;;;;;;;7.63;4.90;;;;;;;16.00;32.67;102866.53;4228680;28;20090;-55
2024/01/12 04:53:27;;;;;;;5.95;4.22;;;;;;;15.99;32.22;102865.69;4229604;28;20055;-56
2024/01/12 04:55:29;;;;;;;6.80;4.85;;;;;;;16.00;32.24;102863.88;4229698;28;20051;-54
2024/01/12 04:57:30;;;;;;;7.57;5.10;;;;;;;16.00;32.41;102855.94;4229912;28;20054;-55
2024/01/12 04:59:32;;;;;;;7.60;5.05;;;;;;;16.01;32.30;102866.50;4229592;28;20044;-55
2024/01/12 05:01:34;;;;;;;6.90;4.97;;;;;;;16.02;32.46;102852.31;4229592;28;20050;-55
2024/01/12 05:03:36;;;;;;;7.82;5.18;;;;;;;16.03;32.22;102851.41;4229786;28;20439;-58
2024/01/12 05:05:37;;;;;;;7.28;5.18;;;;;;;16.04;32.05;102858.47;4228551;28;20054;-55
2024/01/12 05:07:39;;;;;;;7.32;5.13;;;;;;;16.04;32.37;102847.84;4229577;28;20135;-56
2024/01/12 05:09:41;;;;;;;6.55;4.75;;;;;;;16.04;32.25;102852.28;4229141;28;20048;-55
2024/01/12 05:11:43;;;;;;;7.05;4.93;;;;;;;16.01;32.24;102853.22;4229810;28;20087;-55
2024/01/12 05:13:44;;;;;;;;;;;;;;;16.00;32.40;102853.28;4230071;28;20051;-55
2024/01/12 05:15:46;;;;;;;6.43;4.43;;;;;;;15.97;32.61;102849.78;4229804;28;19939;-54
2024/01/12 05:17:48;;;;;;;6.95;4.90;;;;;;;15.99;32.21;102849.75;4229708;28;20051;-56
2024/01/12 05:19:50;;;;;;;7.05;4.47;;;;;;;16.02;32.58;102857.63;4232479;28;20048;-55
2024/01/12 05:21:51;;;;;;;6.88;4.63;;;;;;;16.04;32.80;102852.28;4233013;28;20134;-55
2024/01/12 05:23:53;;;;;;;6.30;4.50;;;;;;;16.04;32.24;102844.31;4232582;28;20118;-55
2024/01/12 05:25:55;;;;;;;6.60;4.55;;;;;;;16.09;32.53;102848.59;4232573;28;20434;-55
2024/01/12 05:27:57;;;;;;;7.00;4.53;;;;;;;16.06;32.55;102843.38;4232708;28;20130;-56
2024/01/12 05:29:59;;;;;;;6.70;4.80;;;;;;;16.07;32.28;102841.59;4232317;28;20066;-55
2024/01/12 05:32:05;;;;;;;7.20;4.55;;;;;;;16.05;32.57;102844.31;4232884;28;20427;-56
2024/01/12 05:34:07;;;;;;;7.63;4.47;;;;;;;16.06;32.58;102839.84;4232550;28;20069;-56
2024/01/12 05:36:09;;;;;;;6.65;4.63;;;;;;;16.04;32.40;102842.56;4232809;28;20051;-57
2024/01/12 05:38:10;;;;;;;7.07;4.38;;;;;;;16.06;32.74;102837.19;4232148;28;20188;-56
2024/01/12 05:40:12;;;;;;;6.13;3.83;;;;;;;16.07;32.63;102842.47;4232679;28;20092;-55
2024/01/12 05:42:14;;;;;;;7.32;4.40;;;;;;;16.10;32.56;102841.50;4232589;28;20068;-57
2024/01/12 05:44:16;;;;;;;6.63;4.22;;;;;;;16.09;32.54;102845.09;4231584;28;20054;-57
2024/01/12 05:46:19;;;;;;;7.45;4.30;;;;;;;16.09;32.51;102843.31;4232638;28;20044;-56
2024/01/12 05:48:20;;;;;;;6.82;4.32;;;;;;;16.10;32.34;102845.06;4232327;28;20039;-55
2024/01/12 05:50:25;;;;;;;7.65;4.13;;;;;;;16.11;32.36;102843.25;4232552;28;20090;-55
2024/01/12 05:52:27;;;;;;;7.20;4.35;;;;;;;16.10;32.34;102845.06;4232187;28;20054;-57
2024/01/12 05:54:29;;;;;;;7.40;4.63;;;;;;;16.10;32.36;102854.78;4232397;28;20079;-55
2024/01/12 05:56:30;;;;;;;7.57;4.75;;;;;;;16.10;32.48;102852.13;4232424;28;20047;-56
2024/01/12 05:58:33;;;;;;;7.75;4.22;;;;;;;16.10;32.47;102853.00;4232159;28;20043;-55
2024/01/12 06:00:34;;;;;;;7.18;4.50;;;;;;;16.08;32.70;102844.22;4232377;28;20035;-57
2024/01/12 06:02:36;;;;;;;7.03;4.45;;;;;;;16.12;32.73;102853.84;4232145;28;20079;-54
2024/01/12 06:04:38;;;;;;;6.53;4.18;;;;;;;16.13;32.63;102852.06;4232397;28;20463;-56
2024/01/12 06:06:40;;;;;;;;;;;;;;;16.13;32.35;102854.72;4232405;28;20138;-56
2024/01/12 06:08:42;;;;;;;7.72;4.68;;;;;;;16.12;32.46;102855.63;4232105;28;19924;-55
2024/01/12 06:10:44;;;;;;;;;;;;;;;16.12;32.65;102856.50;4232352;28;20122;-55
2024/01/12 06:12:46;;;;;;;7.10;4.75;;;;;;;16.11;32.39;102862.72;4232218;28;19925;-57
2024/01/12 06:14:48;;;;;;;7.35;4.70;;;;;;;16.11;32.60;102857.41;4231976;28;20048;-55
2024/01/12 06:16:49;;;;;;;7.15;4.63;;;;;;;16.11;32.42;102862.72;4232155;27;20047;-56
2024/01/12 06:18:51;;;;;;;8.07;4.70;;;;;;;16.10;32.51;102868.06;4232039;28;20452;-56
2024/01/12 06:20:53;;;;;;;8.20;4.50;;;;;;;16.11;32.90;102861.84;4231914;28;20131;-56
2024/01/12 06:22:54;;;;;;;7.50;4.30;;;;;;;16.13;32.53;102862.69;4231427;28;20047;-55
2024/01/12 06:24:56;;;;;;;7.20;4.28;;;;;;;16.13;32.69;102863.53;4232009;28;20047;-56
2024/01/12 06:26:58;;;;;;;6.75;4.60;;;;;;;16.17;32.64;102860.81;4231751;28;20049;-56
2024/01/12 06:29:02;;;;;;;8.23;4.75;;;;;;;16.19;32.59;102865.19;4231422;28;20052;-55
2024/01/12 06:31:04;;;;;;;8.85;4.90;;;;;;;16.18;32.49;102866.09;4231645;28;20047;-55
2024/01/12 06:33:06;;;;;;;6.90;4.50;;;;;;;16.19;32.71;102872.28;4231786;28;20387;-54
2024/01/12 06:35:08;;;;;;;;;;;;;;;16.16;32.65;102864.38;4232262;28;20040;-57
2024/01/12 06:37:09;;;;;;;6.28;4.13;;;;;;;16.14;32.65;102867.09;4231603;28;19920;-56
2024/01/12 06:39:11;;;;;;;7.20;4.55;;;;;;;16.15;32.62;102871.50;4231409;28;20430;-55
2024/01/12 06:41:13;;;;;;;8.88;4.25;;;;;;;16.13;32.62;102866.19;4231501;28;20040;-56
2024/01/12 06:43:14;;;;;;;8.25;4.95;;;;;;;16.14;32.91;102872.41;4231561;28;20129;-55
2024/01/12 06:45:16;;;;;;;7.55;4.78;;;;;;;16.14;32.33;102872.41;4231393;28;20130;-56
2024/01/12 06:47:18;;;;;;;6.57;4.50;;;;;;;16.13;33.00;102868.00;4231375;28;20055;-56
2024/01/12 06:49:20;;;;;;;6.43;3.92;;;;;;;16.15;32.89;102866.19;4231578;28;20068;-56
2024/01/12 06:51:22;;;;;;;6.80;4.28;;;;;;;16.19;32.86;102874.94;4231034;28;20076;-54
2024/01/12 06:53:24;;;;;;;6.88;4.57;;;;;;;16.19;32.65;102869.63;4231389;28;20043;-55
2024/01/12 06:55:26;;;;;;;7.32;4.40;;;;;;;16.20;32.62;102874.03;4231441;28;20048;-56
2024/01/12 06:57:28;;;;;;;8.20;4.72;;;;;;;16.21;32.66;102873.09;4230008;28;20040;-53
2024/01/12 06:59:29;;;;;;;7.72;5.15;;;;;;;16.19;32.69;102866.97;4231163;28;20075;-55
2024/01/12 07:01:31;;;;;;;7.18;4.80;;;;;;;16.18;33.08;102875.84;4231139;28;20447;-54
2024/01/12 07:03:33;;;;;;;;;;;;;;;16.13;32.49;102871.50;4230500;28;20432;-56
2024/01/12 07:05:34;;;;;;;7.97;5.13;;;;;;;16.10;33.04;102868.06;4229837;28;19926;-55
2024/01/12 07:07:39;;;;;;;9.00;5.15;;;;;;;16.12;32.97;102863.59;4231013;28;20052;-55
2024/01/12 07:09:41;;;;;;;8.77;5.30;;;;;;;16.15;32.93;102860.88;4229949;28;20082;-55
2024/01/12 07:11:43;;;;;;;8.27;4.97;;;;;;;16.18;32.78;102867.88;4230934;28;20047;-53
2024/01/12 07:13:45;;;;;;;8.73;5.18;;;;;;;16.20;32.78;102866.06;4230746;28;20048;-56
2024/01/12 07:15:47;;;;;;;8.25;5.18;;;;;;;16.21;32.70;102875.75;4231135;28;20458;-56
2024/01/12 07:17:51;;;;;;;8.00;5.57;;;;;;;16.22;32.68;102874.84;4230917;28;20075;-58
2024/01/12 07:19:53;;;;;;;9.57;5.50;;;;;;;16.22;32.99;102874.84;4230662;28;20415;-56
2024/01/12 07:21:55;;;;;;;8.10;5.15;;;;;;;16.22;32.69;102877.50;4230712;28;20100;-56
2024/01/12 07:23:57;;;;;;;8.55;5.57;;;;;;;16.19;33.02;102873.16;4231123;28;20087;-56
2024/01/12 07:25:59;;;;;;;9.02;6.32;;;;;;;16.18;32.72;102875.84;4230777;28;20090;-56
2024/01/12 07:28:03;;;;;;;8.73;5.70;;;;;;;16.18;32.73;102874.06;4230807;28;20130;-57
2024/01/12 07:30:05;;;;;;;8.95;5.57;;;;;;;16.20;32.98;102882.88;4230438;28;20061;-56
2024/01/12 07:32:07;;;;;;;8.45;5.57;;;;;;;16.18;32.66;102875.84;4230562;28;20501;-55
2024/01/12 07:34:09;;;;;;;7.68;5.47;;;;;;;16.20;33.12;102888.16;4230185;28;20076;-57
2024/01/12 07:36:13;;;;;;;8.73;5.75;;;;;;;16.22;32.98;102889.00;4230843;28;20468;-56
2024/01/12 07:38:15;;;;;;;9.50;5.78;;;;;;;16.23;32.71;102885.44;4230705;28;20514;-55
2024/01/12 07:40:17;;;;;;;9.45;6.05;;;;;;;16.23;33.02;102887.22;4230530;28;20051;-57
2024/01/12 07:42:18;;;;;;;;;;;;;;;16.21;32.77;102889.91;4230280;28;20055;-56
2024/01/12 07:44:20;;;;;;;8.50;5.43;;;;;;;16.16;33.12;102881.19;4230662;28;19920;-55
2024/01/12 07:46:24;;;;;;;9.98;5.90;;;;;;;16.17;33.12;102892.69;4230674;28;20469;-53
2024/01/12 07:48:25;;;;;;;10.02;5.97;;;;;;;16.14;32.66;102880.34;4230424;28;20048;-55
2024/01/12 07:50:27;;;;;;;;;;;;;;;16.14;32.96;102885.66;4230956;28;20075;-56
2024/01/12 07:52:29;;;;;;;8.23;5.53;;;;;;;16.11;32.89;102878.66;4230690;28;20014;-56
2024/01/12 07:54:30;;;;;;;9.50;5.53;;;;;;;16.15;32.95;102887.41;4230578;28;20078;-56
2024/01/12 07:56:33;;;;;;;8.88;5.45;;;;;;;16.17;33.06;102884.72;4230411;28;20118;-56
2024/01/12 07:58:34;;;;;;;;;;;;;;;16.13;32.81;102892.75;4230648;28;20071;-55
2024/01/12 08:00:36;;;;;;;9.77;5.70;;;;;;;16.10;32.92;102887.53;4230348;28;19988;-55
2024/01/12 08:02:38;;;;;;;9.30;5.25;;;;;;;16.09;32.89;102888.44;4229906;28;20289;-52
2024/01/12 08:04:39;;;;;;;8.55;5.13;;;;;;;16.07;32.95;102882.28;4230546;28;20413;-54
2024/01/12 08:06:41;;;;;;;8.63;5.28;;;;;;;16.04;32.66;102882.38;4230235;28;20047;-55
2024/01/12 08:08:43;;;;;;;8.57;5.07;;;;;;;16.03;32.77;102887.72;4230542;28;20052;-55
2024/01/12 08:10:46;;;;;;;8.13;5.03;;;;;;;16.01;32.74;102884.22;4230400;28;20517;-56
2024/01/12 08:12:49;;;;;;;7.68;4.70;;;;;;;16.02;32.78;102878.88;4230340;28;20498;-54
2024/01/12 08:14:51;;;;;;;7.82;4.65;;;;;;;16.05;33.11;102883.22;4230215;28;20512;-55
2024/01/12 08:16:54;;;;;;;9.15;5.60;;;;;;;16.07;33.03;102879.63;4230279;28;20148;-55
2024/01/12 08:18:55;;;;;;;7.55;4.93;;;;;;;16.11;32.62;102873.34;4224300;28;20494;-54
2024/01/12 08:20:57;;;;;;;9.07;4.65;;;;;;;16.13;32.94;102875.97;4218482;28;20088;-56
2024/01/12 08:22:59;;;;;;;8.38;4.63;;;;;;;16.11;32.82;102870.69;4217431;28;20475;-55
2024/01/12 08:25:01;;;;;;;9.38;4.90;;;;;;;16.13;32.91;102875.97;4227572;28;20125;-54
2024/01/12 08:27:03;;;;;;;9.23;5.18;;;;;;;16.10;32.79;102868.94;4227311;28;20184;-56
2024/01/12 08:29:04;;;;;;;8.55;4.70;;;;;;;16.09;32.90;102877.81;4221045;28;20056;-56
2024/01/12 08:31:06;;;;;;;8.43;5.10;;;;;;;16.06;33.03;102877.88;4223043;28;20054;-55
2024/01/12 08:33:08;;;;;;;10.13;5.20;;;;;;;16.00;33.07;102871.84;4215078;28;20511;-52
2024/01/12 08:35:10;;;;;;;9.88;5.45;;;;;;;15.96;32.88;102874.56;4215403;28;20483;-54
2024/01/12 08:37:12;;;;;;;13.75;5.80;;;;;;;15.92;33.30;102869.41;4213197;28;20139;-54
2024/01/12 08:39:14;;;;;;;13.60;6.05;;;;;;;15.94;33.04;102878.16;4221314;28;20040;-55
2024/01/12 08:41:16;;;;;;;10.15;6.20;;;;;;;15.96;33.29;102877.22;4222649;28;20044;-55
2024/01/12 08:43:19;;;;;;;12.57;5.55;;;;;;;15.93;33.02;102877.31;4214483;28;20044;-55
2024/01/12 08:45:21;;;;;;;11.00;5.30;;;;;;;15.89;33.16;102869.44;4228212;28;20040;-55
2024/01/12 08:47:22;;;;;;;17.10;6.40;;;;;;;15.88;33.13;102873.91;4218281;28;20499;-54
2024/01/12 08:49:24;;;;;;;19.52;5.88;;;;;;;15.87;33.32;102877.47;4213026;28;20058;-54
2024/01/12 08:51:26;;;;;;;14.25;6.18;;;;;;;15.81;33.25;102869.59;4216107;28;20047;-52
2024/01/12 08:53:28;;;;;;;14.23;5.60;;;;;;;15.79;33.55;102877.59;4223487;28;20108;-54
2024/01/12 08:55:29;;;;;;;12.60;5.40;;;;;;;15.82;33.07;102889.94;4233113;28;20461;-55
2024/01/12 08:57:31;;;;;;;10.10;4.85;;;;;;;15.74;33.37;102882.13;4229507;28;20131;-62
2024/01/12 08:59:32;;;;;;;9.95;5.15;;;;;;;15.71;33.25;102876.91;4225846;28;20051;-54
2024/01/12 09:01:34;;;;;;;8.48;5.47;;;;;;;15.68;33.34;102871.66;4216947;28;20048;-55
2024/01/12 09:03:36;;;;;;;12.85;5.88;;;;;;;15.71;32.94;102882.22;4216894;28;20044;-56
2024/01/12 09:05:38;;;;;;;10.70;5.57;;;;;;;15.71;32.72;102886.63;4224276;28;20520;-63
2024/01/12 09:07:40;;;;;;;8.77;4.88;;;;;;;15.71;33.16;102883.97;4226816;28;20055;-64
2024/01/12 09:09:41;;;;;;;11.60;5.00;;;;;;;15.74;33.36;102891.88;4229723;28;20126;-55
2024/01/12 09:11:44;;;;;;;8.23;4.85;;;;;;;15.68;33.20;102895.53;4232277;28;20123;-57
2024/01/12 09:13:47;;;;;;;9.70;5.05;;;;;;;15.59;33.33;102906.34;4230282;28;20126;-57
2024/01/12 09:15:49;;;;;;;8.18;4.55;;;;;;;15.54;33.27;102908.22;4226209;28;20051;-56
2024/01/12 09:17:50;;;;;;;11.25;5.30;;;;;;;15.46;33.17;102906.59;4223641;28;20048;-56
2024/01/12 09:19:52;;;;;;;11.00;5.22;;;;;;;15.42;33.49;102904.03;4231296;28;20075;-64
2024/01/12 09:21:54;;;;;;;8.75;5.10;;;;;;;15.41;33.24;102903.19;4231541;28;20048;-70
2024/01/12 09:23:56;;;;;;;9.15;5.00;;;;;;;15.43;33.63;102898.72;4227419;28;20043;-63
2024/01/12 09:25:57;;;;;;;9.60;5.40;;;;;;;15.47;33.77;102905.69;4231404;28;20071;-63
2024/01/12 09:27:59;;;;;;;10.57;4.90;;;;;;;15.47;33.85;102912.78;4232251;28;20506;-62
2024/01/12 09:30:00;;;;;;;10.18;5.30;;;;;;;15.49;33.42;102911.84;4231923;28;20104;-54